Time;durP1;ratioP1;P1;durP2;ratioP2;P2;SDS_P1;SDS_P2;PMS_P1;PMS_P2;Temp;Humidity;BMP_temperature;BMP_pressure;BME280_temperature;BME280_humidity;BME280_pressure;Samples;Min_cycle;Max_cycle;Signal;HPM_P1;HPM_P2
2023/10/21 00:01:49;;;;;;;2.10;1.20;;;15.40;90.30;;;;;;4956929;28;20038;-82
2023/10/21 00:04:15;;;;;;;2.97;1.27;;;15.40;90.30;;;;;;4955870;28;20509;-81
2023/10/21 00:06:40;;;;;;;2.88;1.50;;;15.40;90.30;;;;;;4956810;28;20039;-82
2023/10/21 00:09:06;;;;;;;2.05;1.17;;;15.40;90.30;;;;;;4956727;28;20085;-82
2023/10/21 00:11:32;;;;;;;3.50;1.40;;;15.40;90.30;;;;;;4956743;28;20019;-81
2023/10/21 00:13:57;;;;;;;2.10;1.35;;;15.40;90.30;;;;;;4956609;28;20026;-82
2023/10/21 00:16:23;;;;;;;2.65;1.48;;;15.40;90.40;;;;;;4956693;28;20029;-82
2023/10/21 00:18:49;;;;;;;2.35;1.40;;;15.40;90.30;;;;;;4974126;28;20022;-81
2023/10/21 00:21:14;;;;;;;2.20;1.30;;;15.40;90.30;;;;;;4956621;28;20027;-82
2023/10/21 00:23:40;;;;;;;2.05;1.25;;;15.50;90.30;;;;;;4955781;28;20023;-82
2023/10/21 00:26:06;;;;;;;2.85;1.42;;;15.50;90.20;;;;;;4956647;28;20117;-82
2023/10/21 00:28:32;;;;;;;1.40;1.20;;;15.50;90.20;;;;;;4956470;28;20444;-82
2023/10/21 00:31:02;;;;;;;2.35;1.30;;;15.50;90.20;;;;;;4956641;28;20030;-82
2023/10/21 00:33:27;;;;;;;2.17;1.30;;;15.50;90.10;;;;;;4956237;28;20078;-81
2023/10/21 00:35:52;;;;;;;1.77;1.20;;;15.60;90.10;;;;;;4973846;28;20027;-81
2023/10/21 00:38:18;;;;;;;2.05;1.23;;;15.50;90.10;;;;;;4956499;28;20022;-82
2023/10/21 00:40:55;;;;;;;2.22;1.30;;;15.50;90.10;;;;;;4956429;28;20030;-82
2023/10/21 00:43:42;;;;;;;1.88;1.20;;;15.50;90.10;;;;;;4973456;28;20119;-82
2023/10/21 00:46:14;;;;;;;2.35;1.30;;;15.50;90.10;;;;;;4973628;28;20035;-81
2023/10/21 00:48:40;;;;;;;2.63;1.30;;;15.50;90.20;;;;;;4956317;28;20038;-82
2023/10/21 00:51:06;;;;;;;1.83;1.13;;;15.50;90.20;;;;;;4973589;28;20031;-82
2023/10/21 00:53:34;;;;;;;2.13;1.20;;;15.40;90.20;;;;;;4956064;28;20047;-82
2023/10/21 00:55:59;;;;;;;2.70;1.30;;;15.50;90.20;;;;;;4973600;28;20084;-82
2023/10/21 00:58:27;;;;;;;2.80;1.33;;;15.40;90.20;;;;;;4956409;28;20121;-82
2023/10/21 01:00:54;;;;;;;2.08;1.25;;;15.40;90.20;;;;;;4956186;28;20027;-82
2023/10/21 01:03:22;;;;;;;1.42;1.10;;;15.40;90.30;;;;;;4955977;28;20041;-81
2023/10/21 01:05:48;;;;;;;1.52;1.10;;;15.40;90.30;;;;;;4956244;28;20023;-82
2023/10/21 01:08:13;;;;;;;1.95;1.17;;;15.40;90.20;;;;;;4956139;28;20034;-82
2023/10/21 01:10:40;;;;;;;1.83;1.10;;;15.40;90.30;;;;;;4956099;28;20022;-82
2023/10/21 01:13:05;;;;;;;1.90;1.20;;;15.40;90.30;;;;;;4955848;28;20047;-82
2023/10/21 01:15:31;;;;;;;2.67;1.40;;;15.40;90.30;;;;;;4957073;28;20062;-82
2023/10/21 01:17:56;;;;;;;2.05;1.20;;;15.40;90.30;;;;;;4959898;28;20027;-82
2023/10/21 01:20:22;;;;;;;2.03;1.30;;;15.40;90.30;;;;;;4959764;28;20034;-82
2023/10/21 01:22:47;;;;;;;2.05;1.20;;;15.40;90.30;;;;;;4959495;28;20031;-82
2023/10/21 01:25:13;;;;;;;2.60;1.48;;;15.40;90.30;;;;;;4959857;28;20023;-82
2023/10/21 01:27:38;;;;;;;2.22;1.30;;;15.40;90.30;;;;;;4959653;28;20030;-82
2023/10/21 01:30:05;;;;;;;2.35;1.30;;;15.40;90.30;;;;;;4959908;28;20030;-82
2023/10/21 01:32:31;;;;;;;1.88;1.17;;;15.40;90.60;;;;;;4959338;28;20046;-82
2023/10/21 01:34:57;;;;;;;2.13;1.33;;;15.40;90.40;;;;;;4959464;28;20046;-82
2023/10/21 01:37:22;;;;;;;2.30;1.30;;;15.40;90.30;;;;;;4959534;28;20085;-82
2023/10/21 01:39:48;;;;;;;2.47;1.30;;;15.50;90.30;;;;;;4976791;28;20489;-82
2023/10/21 01:42:14;;;;;;;2.45;1.27;;;15.40;90.20;;;;;;4959236;28;20101;-81
2023/10/21 01:44:39;;;;;;;1.80;1.10;;;15.50;90.20;;;;;;4959224;28;20118;-82
2023/10/21 01:47:05;;;;;;;2.20;1.30;;;15.50;90.20;;;;;;4976472;28;20121;-82
2023/10/21 01:49:31;;;;;;;1.85;1.10;;;15.50;90.10;;;;;;4959199;28;20424;-82
2023/10/21 01:51:57;;;;;;;2.28;1.27;;;15.50;90.10;;;;;;4959188;28;20018;-82
2023/10/21 01:54:22;;;;;;;1.90;1.20;;;15.50;90.10;;;;;;4958949;28;20033;-81
2023/10/21 01:56:48;;;;;;;1.80;1.30;;;15.50;90.10;;;;;;4976425;28;20456;-82
2023/10/21 01:59:14;;;;;;;2.33;1.30;;;15.50;90.10;;;;;;4959164;28;20023;-82
2023/10/21 02:01:40;;;;;;;2.25;1.20;;;15.50;90.20;;;;;;4958850;28;20031;-81
2023/10/21 02:04:06;;;;;;;1.60;1.20;;;15.40;90.20;;;;;;4959039;28;20066;-82
2023/10/21 02:06:31;;;;;;;1.52;1.10;;;15.50;90.20;;;;;;4958946;28;20065;-82
2023/10/21 02:08:57;;;;;;;2.33;1.20;;;15.50;90.20;;;;;;4958985;28;20196;-81
2023/10/21 02:11:24;;;;;;;1.70;1.17;;;15.40;90.20;;;;;;4959099;28;20019;-82
2023/10/21 02:13:50;;;;;;;1.83;1.20;;;15.40;90.20;;;;;;4976250;28;20512;-81
2023/10/21 02:16:16;;;;;;;2.70;1.30;;;15.40;90.30;;;;;;4958666;28;20602;-82
2023/10/21 02:18:42;;;;;;;1.60;1.02;;;15.40;90.30;;;;;;4958702;28;20117;-82
2023/10/21 02:21:07;;;;;;;1.88;1.20;;;15.40;90.30;;;;;;4976134;28;20568;-82
2023/10/21 02:23:33;;;;;;;2.00;1.30;;;15.40;90.30;;;;;;4958513;28;20029;-82
2023/10/21 02:26:00;;;;;;;1.42;1.00;;;15.40;90.30;;;;;;4958757;28;20023;-82
2023/10/21 02:28:26;;;;;;;1.80;1.10;;;15.40;90.30;;;;;;4953199;28;20577;-81
2023/10/21 02:30:51;;;;;;;2.00;1.20;;;15.40;90.30;;;;;;4957829;28;20113;-81
2023/10/21 02:33:17;;;;;;;2.38;1.30;;;15.40;90.40;;;;;;4958407;28;20023;-82
2023/10/21 02:35:42;;;;;;;1.90;1.20;;;15.40;90.40;;;;;;4958673;28;20110;-82
2023/10/21 02:38:08;;;;;;;1.50;1.08;;;15.40;90.40;;;;;;4975771;28;20030;-81
2023/10/21 02:40:34;;;;;;;2.42;1.30;;;15.40;90.40;;;;;;4958472;28;20027;-82
2023/10/21 02:42:59;;;;;;;2.00;1.23;;;15.40;90.40;;;;;;4958113;28;20031;-82
2023/10/21 02:45:26;;;;;;;1.75;1.05;;;15.40;90.40;;;;;;4958213;28;20084;-82
2023/10/21 02:47:52;;;;;;;1.98;1.30;;;15.40;90.40;;;;;;4958395;28;20118;-82
2023/10/21 02:50:18;;;;;;;2.03;1.20;;;15.40;90.40;;;;;;4958259;28;20565;-81
2023/10/21 02:52:43;;;;;;;1.70;1.13;;;15.40;90.30;;;;;;4957917;28;20057;-82
2023/10/21 02:55:11;;;;;;;1.45;1.00;;;15.40;90.30;;;;;;4975480;28;20400;-82
2023/10/21 02:57:37;;;;;;;2.55;1.20;;;15.50;90.30;;;;;;4958059;28;20019;-82
2023/10/21 03:00:10;;;;;;;1.55;1.10;;;15.50;90.20;;;;;;4975289;28;20030;-81
2023/10/21 03:02:36;;;;;;;2.15;1.15;;;15.50;90.20;;;;;;4957792;28;20027;-82
2023/10/21 03:05:01;;;;;;;1.70;1.20;;;15.50;90.20;;;;;;4957942;28;20397;-82
2023/10/21 03:07:27;;;;;;;1.90;1.10;;;15.50;90.10;;;;;;4957885;28;20026;-82
2023/10/21 03:09:52;;;;;;;2.25;1.30;;;15.50;90.10;;;;;;4957903;28;20512;-82
2023/10/21 03:12:19;;;;;;;2.50;1.30;;;15.50;90.20;;;;;;4957580;28;20019;-81
2023/10/21 03:14:44;;;;;;;1.48;1.00;;;15.50;90.20;;;;;;4989957;28;20082;-82
2023/10/21 03:17:10;;;;;;;1.60;1.17;;;15.50;90.20;;;;;;4974957;28;20027;-82
2023/10/21 03:19:36;;;;;;;1.83;1.10;;;15.50;90.20;;;;;;4957575;28;20458;-82
2023/10/21 03:22:02;;;;;;;1.98;1.17;;;15.40;90.20;;;;;;4957586;28;20122;-84
2023/10/21 03:24:27;;;;;;;1.80;1.17;;;15.40;90.20;;;;;;4957329;28;20037;-82
2023/10/21 03:26:53;;;;;;;1.80;1.20;;;15.40;90.30;;;;;;4974911;28;20061;-82
2023/10/21 03:29:18;;;;;;;2.00;1.20;;;15.40;90.30;;;;;;4957502;28;20019;-82
2023/10/21 03:31:44;;;;;;;1.52;1.20;;;15.40;90.30;;;;;;4957493;28;20023;-82
2023/10/21 03:34:10;;;;;;;2.33;1.38;;;15.40;90.30;;;;;;4957098;28;20030;-82
2023/10/21 03:36:35;;;;;;;1.70;1.10;;;15.40;90.30;;;;;;4974660;28;20089;-82
2023/10/21 03:39:01;;;;;;;1.65;1.15;;;15.40;90.30;;;;;;4957166;28;20031;-82
2023/10/21 03:41:26;;;;;;;1.90;1.10;;;15.40;90.40;;;;;;4957375;28;20109;-81
2023/10/21 03:43:52;;;;;;;1.70;1.10;;;15.40;90.40;;;;;;4989225;28;20093;-82
2023/10/21 03:46:17;;;;;;;1.73;1.20;;;15.40;90.40;;;;;;4956917;28;20511;-82
2023/10/21 03:48:43;;;;;;;1.90;1.13;;;15.40;90.40;;;;;;4957081;28;20094;-82
2023/10/21 03:51:11;;;;;;;2.10;1.20;;;15.40;90.40;;;;;;4957078;28;20057;-82
2023/10/21 03:53:39;;;;;;;1.95;1.30;;;15.40;90.40;;;;;;4974138;28;20073;-82
2023/10/21 03:56:05;;;;;;;1.30;1.02;;;15.40;90.40;;;;;;4974387;28;20046;-82
2023/10/21 03:58:31;;;;;;;1.48;1.00;;;15.40;90.40;;;;;;4956812;28;20081;-82
2023/10/21 04:00:57;;;;;;;1.95;1.08;;;15.40;90.40;;;;;;4956989;28;20055;-82
2023/10/21 04:03:24;;;;;;;1.35;0.95;;;15.40;90.40;;;;;;4956707;28;20031;-82
2023/10/21 04:05:51;;;;;;;1.63;1.10;;;15.40;90.50;;;;;;4956901;28;20035;-81
2023/10/21 04:08:17;;;;;;;1.95;0.98;;;15.40;90.40;;;;;;4956860;28;20089;-82
2023/10/21 04:10:42;;;;;;;1.30;1.00;;;15.40;90.30;;;;;;4956777;28;20067;-82
2023/10/21 04:13:08;;;;;;;1.60;1.10;;;15.40;90.30;;;;;;4956564;28;20048;-82
2023/10/21 04:15:34;;;;;;;1.15;0.95;;;15.50;90.30;;;;;;4974088;28;20019;-82
2023/10/21 04:17:59;;;;;;;1.67;1.10;;;15.50;90.20;;;;;;4956621;28;20377;-81
2023/10/21 04:20:25;;;;;;;1.90;1.10;;;15.50;90.20;;;;;;4956669;28;20109;-82
2023/10/21 04:22:50;;;;;;;1.75;1.10;;;15.50;90.20;;;;;;4956418;28;20029;-82
2023/10/21 04:25:16;;;;;;;2.17;1.15;;;15.50;90.20;;;;;;4956633;28;20057;-82
2023/10/21 04:27:42;;;;;;;2.13;1.10;;;15.50;90.20;;;;;;4955328;28;20082;-81
2023/10/21 04:30:08;;;;;;;2.08;1.10;;;15.40;90.20;;;;;;4973291;28;20412;-83
2023/10/21 04:32:34;;;;;;;1.75;1.10;;;15.40;90.20;;;;;;4973506;28;20031;-82
2023/10/21 04:35:00;;;;;;;1.85;1.20;;;15.40;90.20;;;;;;4956574;28;20117;-82
2023/10/21 04:37:26;;;;;;;1.83;1.20;;;15.40;90.30;;;;;;4956478;28;20031;-82
2023/10/21 04:39:52;;;;;;;1.50;1.00;;;15.40;90.30;;;;;;4973739;28;20023;-82
2023/10/21 04:42:18;;;;;;;1.88;1.15;;;15.40;90.30;;;;;;4956082;28;20477;-81
2023/10/21 04:44:44;;;;;;;1.70;1.20;;;15.40;90.30;;;;;;4955481;28;20073;-81
2023/10/21 04:47:11;;;;;;;2.20;0.90;;;15.40;90.40;;;;;;4955920;28;20039;-82
2023/10/21 04:49:36;;;;;;;2.03;1.20;;;15.40;90.40;;;;;;4956385;28;20509;-82
2023/10/21 04:52:03;;;;;;;1.17;1.05;;;15.40;90.40;;;;;;4959939;28;20023;-82
2023/10/21 04:54:28;;;;;;;1.88;1.23;;;15.40;90.40;;;;;;4977271;28;20023;-82
2023/10/21 04:56:54;;;;;;;1.77;1.20;;;15.30;90.40;;;;;;4960179;28;20023;-81
2023/10/21 04:59:20;;;;;;;1.70;1.20;;;15.40;90.40;;;;;;4961363;28;20489;-82
2023/10/21 05:01:45;;;;;;;1.63;1.15;;;15.40;90.40;;;;;;4960111;28;20027;-82
2023/10/21 05:04:11;;;;;;;1.88;1.20;;;15.40;90.40;;;;;;4959991;28;20027;-82
2023/10/21 05:06:37;;;;;;;1.80;1.05;;;15.40;90.40;;;;;;4977496;28;20030;-81
2023/10/21 05:09:03;;;;;;;2.13;1.10;;;15.40;90.40;;;;;;4960063;28;20078;-81
2023/10/21 05:11:28;;;;;;;1.65;1.10;;;15.30;90.40;;;;;;4960026;28;20030;-82
2023/10/21 05:13:54;;;;;;;1.70;1.20;;;15.30;90.40;;;;;;4959733;28;20073;-82
2023/10/21 05:16:20;;;;;;;1.52;1.10;;;15.30;90.40;;;;;;4977152;28;20088;-82
2023/10/21 05:18:45;;;;;;;2.25;1.30;;;15.30;90.40;;;;;;4959977;28;20027;-82
2023/10/21 05:21:11;;;;;;;1.35;1.10;;;15.40;90.50;;;;;;4959920;28;20030;-82
2023/10/21 05:23:36;;;;;;;1.95;1.30;;;15.40;90.40;;;;;;4959465;28;20019;-81
2023/10/21 05:26:02;;;;;;;2.03;1.20;;;15.40;90.40;;;;;;4959675;28;20117;-82
2023/10/21 05:28:27;;;;;;;1.38;1.10;;;15.40;90.30;;;;;;4959662;28;20030;-82
2023/10/21 05:30:53;;;;;;;2.03;1.20;;;15.40;90.30;;;;;;4959642;28;20167;-82
2023/10/21 05:33:19;;;;;;;1.60;1.10;;;15.50;90.30;;;;;;4959474;28;20177;-82
2023/10/21 05:35:44;;;;;;;1.35;0.90;;;15.50;90.20;;;;;;4959685;28;20030;-82
2023/10/21 05:38:10;;;;;;;1.80;1.23;;;15.50;90.20;;;;;;4976855;28;20035;-82
2023/10/21 05:40:37;;;;;;;1.25;0.95;;;15.50;90.20;;;;;;4976933;28;20070;-82
2023/10/21 05:43:02;;;;;;;2.60;1.10;;;15.40;90.20;;;;;;4959374;28;20398;-82
2023/10/21 05:45:28;;;;;;;1.83;1.17;;;15.40;90.20;;;;;;4959102;28;20037;-82
2023/10/21 05:47:53;;;;;;;2.10;1.23;;;15.40;90.30;;;;;;4959238;28;20027;-82
2023/10/21 05:50:21;;;;;;;1.73;1.15;;;15.40;90.30;;;;;;4959311;28;20051;-83
2023/10/21 05:52:46;;;;;;;1.80;1.20;;;15.40;90.30;;;;;;4959076;28;20027;-82
2023/10/21 05:55:12;;;;;;;2.30;1.10;;;15.40;90.40;;;;;;4974984;28;20038;-82
2023/10/21 05:57:38;;;;;;;1.65;1.10;;;15.40;90.40;;;;;;4956330;28;20504;-83
2023/10/21 06:00:07;;;;;;;2.42;1.30;;;15.30;90.60;;;;;;4957257;28;20188;-85
2023/10/21 06:02:32;;;;;;;1.80;1.20;;;15.40;90.40;;;;;;4955722;28;20023;-83
2023/10/21 06:04:58;;;;;;;1.70;1.00;;;15.40;90.40;;;;;;4959494;28;20037;-81
2023/10/21 06:07:23;;;;;;;2.10;1.20;;;15.40;90.40;;;;;;4977463;28;20031;-82
2023/10/21 06:09:49;;;;;;;2.20;1.10;;;15.30;90.40;;;;;;4976993;28;20892;-84
2023/10/21 06:12:14;;;;;;;1.63;1.13;;;15.40;90.40;;;;;;4976313;28;20152;-82
2023/10/21 06:14:40;;;;;;;1.77;1.17;;;15.40;90.50;;;;;;4976272;28;20758;-84
2023/10/21 06:17:06;;;;;;;1.67;1.13;;;15.40;90.50;;;;;;4993930;28;20109;-82
2023/10/21 06:19:32;;;;;;;1.70;1.15;;;15.30;90.40;;;;;;4976556;28;20161;-83
2023/10/21 06:21:58;;;;;;;1.38;1.00;;;15.30;90.40;;;;;;4977321;28;20022;-83
2023/10/21 06:24:24;;;;;;;1.88;1.05;;;15.40;90.50;;;;;;4977473;28;20033;-83
2023/10/21 06:26:50;;;;;;;1.80;1.20;;;15.30;90.50;;;;;;4974747;28;20393;-82
2023/10/21 06:29:16;;;;;;;2.40;1.20;;;15.40;90.50;;;;;;4958952;28;20042;-83
2023/10/21 06:31:41;;;;;;;1.92;1.13;;;15.40;90.50;;;;;;4957447;28;20019;-82
2023/10/21 06:34:08;;;;;;;1.40;0.95;;;15.40;90.50;;;;;;4957161;28;20050;-83
2023/10/21 06:36:34;;;;;;;1.58;1.17;;;15.40;90.50;;;;;;4943120;29;20057;-83
2023/10/21 06:39:00;;;;;;;1.42;1.10;;;15.40;90.50;;;;;;4938479;29;20577;-82
2023/10/21 06:41:25;;;;;;;1.38;1.00;;;15.40;90.40;;;;;;4937891;29;20082;-83
2023/10/21 06:43:54;;;;;;;1.63;1.00;;;15.40;90.40;;;;;;4937936;29;20433;-83
2023/10/21 06:46:19;;;;;;;1.55;1.13;;;15.40;90.30;;;;;;4938029;29;20043;-82
2023/10/21 06:48:45;;;;;;;1.80;1.20;;;15.40;90.30;;;;;;4937952;29;20107;-83
2023/10/21 06:51:13;;;;;;;1.02;0.90;;;15.40;90.30;;;;;;4938155;29;20023;-82
2023/10/21 06:53:38;;;;;;;1.65;1.00;;;15.50;90.30;;;;;;4937421;29;20054;-83
2023/10/21 06:56:12;;;;;;;1.92;1.27;;;15.50;90.30;;;;;;4939991;28;20382;-84
2023/10/21 06:58:41;;;;;;;1.15;0.90;;;15.50;90.30;;;;;;4957431;28;20034;-84
2023/10/21 07:01:07;;;;;;;1.80;1.13;;;15.40;90.30;;;;;;4956569;28;20489;-83
2023/10/21 07:03:32;;;;;;;1.98;1.10;;;15.40;90.30;;;;;;4956302;28;20042;-82
2023/10/21 07:05:58;;;;;;;1.42;1.00;;;15.40;90.30;;;;;;4957441;28;20034;-84
2023/10/21 07:08:24;;;;;;;1.77;1.00;;;15.40;90.40;;;;;;4945236;29;20062;-85
2023/10/21 07:10:53;;;;;;;1.48;1.00;;;15.40;90.40;;;;;;4936880;29;20035;-84
2023/10/21 07:13:19;;;;;;;1.55;1.00;;;15.30;90.40;;;;;;4936856;29;20162;-84
2023/10/21 07:15:45;;;;;;;1.60;1.13;;;15.30;90.40;;;;;;4954636;29;20042;-83
2023/10/21 07:18:10;;;;;;;0.85;0.80;;;15.40;90.50;;;;;;4937151;29;20494;-85
2023/10/21 07:20:36;;;;;;;1.27;1.00;;;15.40;90.50;;;;;;4953811;29;20062;-84
2023/10/21 07:23:02;;;;;;;1.35;1.00;;;15.40;90.50;;;;;;4936996;29;20063;-83
2023/10/21 07:25:28;;;;;;;1.95;1.10;;;15.30;90.50;;;;;;4938101;29;20047;-84
2023/10/21 07:27:54;;;;;;;1.77;1.05;;;15.20;90.40;;;;;;4937550;29;20079;-82
2023/10/21 07:30:23;;;;;;;1.08;0.90;;;15.40;90.50;;;;;;4953030;29;20505;-83
2023/10/21 07:32:49;;;;;;;1.50;1.13;;;15.40;90.50;;;;;;4937387;29;20019;-83
2023/10/21 07:35:14;;;;;;;1.27;1.00;;;15.40;90.50;;;;;;4937185;29;20027;-83
2023/10/21 07:37:40;;;;;;;1.48;1.17;;;15.40;90.50;;;;;;4936994;29;20122;-83
2023/10/21 07:40:07;;;;;;;1.30;0.95;;;15.30;90.50;;;;;;4937782;29;20917;-83
2023/10/21 07:42:32;;;;;;;1.90;1.10;;;15.30;90.50;;;;;;4954648;28;20035;-83
2023/10/21 07:44:58;;;;;;;1.88;1.10;;;15.40;90.50;;;;;;4936597;29;20397;-83
2023/10/21 07:47:24;;;;;;;1.45;1.00;;;15.40;90.50;;;;;;4955210;29;20054;-85
2023/10/21 07:49:51;;;;;;;1.55;1.00;;;15.40;90.60;;;;;;4936920;29;20928;-80
2023/10/21 07:52:17;;;;;;;1.27;0.98;;;15.40;90.60;;;;;;4954527;29;20027;-83
2023/10/21 07:54:42;;;;;;;1.40;0.98;;;15.40;90.50;;;;;;4955278;28;20035;-85
2023/10/21 07:57:08;;;;;;;1.00;0.80;;;15.40;90.70;;;;;;4937394;29;20134;-85
2023/10/21 07:59:34;;;;;;;1.48;0.90;;;15.40;90.40;;;;;;4937967;29;20042;-81
2023/10/21 08:02:00;;;;;;;1.25;1.02;;;15.50;90.40;;;;;;4937439;29;20034;-84
2023/10/21 08:04:25;;;;;;;1.35;0.90;;;15.40;90.30;;;;;;4954723;28;20493;-83
2023/10/21 08:06:51;;;;;;;2.13;1.10;;;15.50;90.30;;;;;;4956134;28;20038;-84
2023/10/21 08:09:18;;;;;;;1.10;0.90;;;15.40;90.30;;;;;;4956643;28;20393;-84
2023/10/21 08:11:44;;;;;;;1.52;1.00;;;15.40;90.30;;;;;;4973643;28;20567;-83
2023/10/21 08:14:13;;;;;;;1.70;1.10;;;15.50;90.30;;;;;;4956144;28;20129;-83
2023/10/21 08:16:39;;;;;;;1.63;1.05;;;15.40;90.30;;;;;;4956091;28;20085;-82
2023/10/21 08:19:05;;;;;;;1.55;1.08;;;15.40;90.30;;;;;;4973609;28;20027;-84
2023/10/21 08:21:34;;;;;;;1.23;0.90;;;15.40;90.40;;;;;;4955950;28;20035;-83
2023/10/21 08:24:03;;;;;;;1.48;0.98;;;15.40;90.40;;;;;;4955578;28;20026;-81
2023/10/21 08:26:32;;;;;;;1.30;1.00;;;15.40;90.40;;;;;;4955032;28;20039;-81
2023/10/21 08:28:58;;;;;;;1.48;1.10;;;15.40;90.50;;;;;;4955167;28;20461;-82
2023/10/21 08:31:24;;;;;;;1.63;1.10;;;15.40;90.50;;;;;;4955881;28;20114;-83
2023/10/21 08:33:51;;;;;;;1.33;0.95;;;15.40;90.50;;;;;;4954825;28;20051;-80
2023/10/21 08:36:22;;;;;;;1.20;0.95;;;15.40;90.50;;;;;;4950771;28;20766;-80
2023/10/21 08:38:48;;;;;;;1.52;0.98;;;15.40;90.50;;;;;;4958388;28;20038;-81
2023/10/21 08:41:14;;;;;;;1.40;1.00;;;15.40;90.50;;;;;;4966402;28;20023;-81
2023/10/21 08:43:47;;;;;;;1.30;0.90;;;15.40;90.50;;;;;;4956165;28;20030;-81
2023/10/21 08:46:15;;;;;;;1.70;1.00;;;15.30;90.50;;;;;;4956495;28;20043;-79
2023/10/21 08:48:43;;;;;;;1.50;1.10;;;15.40;90.60;;;;;;4956305;28;20030;-80
2023/10/21 08:51:10;;;;;;;1.92;1.10;;;15.40;90.60;;;;;;4956331;28;20031;-80
2023/10/21 08:53:38;;;;;;;1.13;0.93;;;15.40;90.50;;;;;;4956030;28;20030;-80
2023/10/21 08:56:03;;;;;;;1.50;1.00;;;15.40;90.50;;;;;;4956355;28;20019;-80
2023/10/21 08:58:29;;;;;;;1.75;0.90;;;15.40;90.50;;;;;;4974040;28;20026;-80
2023/10/21 09:00:55;;;;;;;1.58;0.88;;;15.50;90.50;;;;;;4973575;28;20117;-81
2023/10/21 09:03:20;;;;;;;1.05;0.90;;;15.50;90.40;;;;;;4955988;28;20117;-80
2023/10/21 09:06:06;;;;;;;1.27;0.82;;;15.50;90.40;;;;;;4956309;28;20512;-80
2023/10/21 09:08:32;;;;;;;1.33;1.00;;;15.50;90.40;;;;;;4956083;28;20062;-80
2023/10/21 09:11:06;;;;;;;1.33;0.90;;;15.60;90.30;;;;;;4956540;28;20026;-80
2023/10/21 09:13:34;;;;;;;1.40;1.00;;;15.60;90.30;;;;;;4956095;28;20089;-81
2023/10/21 09:16:00;;;;;;;1.13;0.90;;;15.60;90.20;;;;;;4956248;28;20050;-82
2023/10/21 09:18:26;;;;;;;2.15;1.13;;;15.70;90.10;;;;;;4956257;28;20077;-80
2023/10/21 09:20:52;;;;;;;1.88;1.00;;;15.70;90.10;;;;;;4955977;28;20117;-79
2023/10/21 09:23:20;;;;;;;1.75;1.00;;;15.70;90.10;;;;;;4955739;28;20033;-80
2023/10/21 09:25:50;;;;;;;2.42;1.10;;;15.70;90.10;;;;;;4955920;28;20027;-80
2023/10/21 09:28:24;;;;;;;1.50;1.00;;;15.80;90.10;;;;;;4955947;28;20027;-80
2023/10/21 09:30:57;;;;;;;1.73;0.95;;;15.70;90.10;;;;;;4956274;28;20019;-79
2023/10/21 09:33:24;;;;;;;2.35;1.00;;;15.70;90.10;;;;;;4955523;28;20026;-79
2023/10/21 09:36:04;;;;;;;1.15;0.95;;;15.70;90.10;;;;;;4973045;28;20038;-79
2023/10/21 09:38:36;;;;;;;1.50;0.90;;;15.80;90.10;;;;;;4959725;28;20026;-79
2023/10/21 09:41:16;;;;;;;0.93;0.80;;;15.80;90.10;;;;;;4959079;28;20035;-81
2023/10/21 09:43:42;;;;;;;2.20;0.98;;;15.80;90.10;;;;;;4959181;28;20437;-78
2023/10/21 09:46:12;;;;;;;1.55;1.00;;;15.80;90.00;;;;;;4959048;28;20034;-80
2023/10/21 09:48:41;;;;;;;1.55;0.90;;;15.80;90.00;;;;;;4959299;28;20030;-80
2023/10/21 09:51:11;;;;;;;2.33;0.80;;;15.90;90.00;;;;;;4959097;28;20023;-80
2023/10/21 09:53:43;;;;;;;1.30;1.00;;;15.90;90.00;;;;;;4958755;28;20019;-80
2023/10/21 09:56:11;;;;;;;1.88;0.95;;;15.80;90.00;;;;;;4959332;28;20033;-80
2023/10/21 09:58:40;;;;;;;1.00;0.80;;;15.80;90.00;;;;;;4959013;28;20029;-80
2023/10/21 10:01:07;;;;;;;1.42;0.90;;;15.80;90.00;;;;;;4959182;28;20022;-80
2023/10/21 10:03:35;;;;;;;1.55;1.08;;;15.90;90.00;;;;;;4958880;28;20031;-80
2023/10/21 10:06:05;;;;;;;1.83;0.98;;;15.90;90.00;;;;;;4976726;28;20093;-80
2023/10/21 10:08:34;;;;;;;1.70;1.00;;;15.90;90.00;;;;;;4957937;28;20062;-80
2023/10/21 10:11:10;;;;;;;1.27;0.90;;;16.00;90.00;;;;;;4958884;28;20484;-80
2023/10/21 10:13:42;;;;;;;1.50;0.90;;;16.00;90.00;;;;;;4975791;28;20670;-80
2023/10/21 10:16:23;;;;;;;;;;;16.00;89.90;;;;;;4959083;28;20551;-80
2023/10/21 10:18:50;;;;;;;1.65;0.95;;;16.00;89.80;;;;;;4990846;28;19938;-79
2023/10/21 10:21:17;;;;;;;1.23;0.80;;;16.00;89.90;;;;;;4958675;28;20031;-80
2023/10/21 10:23:50;;;;;;;1.38;0.93;;;16.00;90.00;;;;;;4958302;28;20035;-80
2023/10/21 10:26:38;;;;;;;0.90;0.80;;;16.00;89.90;;;;;;4975933;28;20110;-80
2023/10/21 10:29:25;;;;;;;0.95;0.75;;;16.00;89.90;;;;;;4958507;28;20029;-80
2023/10/21 10:32:10;;;;;;;1.38;0.80;;;16.00;89.70;;;;;;4975906;28;20054;-80
2023/10/21 10:34:48;;;;;;;0.75;0.57;;;16.00;89.80;;;;;;4975416;28;20027;-80
2023/10/21 10:37:37;;;;;;;0.90;0.80;;;16.10;89.70;;;;;;4975827;28;20026;-80
2023/10/21 10:40:18;;;;;;;1.15;0.90;;;16.10;89.70;;;;;;4975536;28;20523;-78
2023/10/21 10:42:44;;;;;;;0.80;0.70;;;16.10;89.60;;;;;;4957758;28;20422;-81
2023/10/21 10:45:10;;;;;;;1.58;0.80;;;16.10;89.70;;;;;;4958105;28;20119;-81
2023/10/21 10:47:37;;;;;;;1.25;0.90;;;16.10;89.60;;;;;;4957864;28;20034;-81
2023/10/21 10:50:11;;;;;;;1.17;0.70;;;16.10;89.50;;;;;;4957407;28;20130;-80
2023/10/21 10:52:36;;;;;;;1.08;0.80;;;16.10;89.50;;;;;;4974111;28;20023;-80
2023/10/21 10:55:08;;;;;;;1.50;0.98;;;16.10;89.50;;;;;;4958032;28;20027;-80
2023/10/21 10:57:34;;;;;;;;;;;16.20;89.60;;;;;;4976062;28;20023;-83
2023/10/21 10:59:59;;;;;;;0.88;0.73;;;16.00;89.60;;;;;;4959563;28;19906;-80
2023/10/21 11:02:28;;;;;;;1.58;0.88;;;16.10;89.80;;;;;;4958142;28;20647;-81
2023/10/21 11:04:56;;;;;;;0.93;0.70;;;16.10;90.00;;;;;;4957902;28;20034;-79
2023/10/21 11:07:21;;;;;;;1.98;0.88;;;16.10;90.00;;;;;;4957600;28;20397;-80
2023/10/21 11:09:58;;;;;;;1.20;0.88;;;16.10;90.00;;;;;;4957815;28;20084;-79
2023/10/21 11:12:27;;;;;;;1.02;0.70;;;16.10;90.00;;;;;;4957474;28;20396;-80
2023/10/21 11:14:53;;;;;;;0.90;0.70;;;16.00;90.00;;;;;;4974771;28;20019;-80
2023/10/21 11:17:18;;;;;;;1.05;0.70;;;16.10;90.00;;;;;;4957420;28;20026;-78
2023/10/21 11:19:45;;;;;;;37.88;3.78;;;16.10;90.00;;;;;;4941851;28;20054;-81
2023/10/21 11:22:26;;;;;;;77.75;6.15;;;16.00;90.00;;;;;;4957562;28;20109;-79
2023/10/21 11:24:52;;;;;;;75.55;6.50;;;16.10;90.00;;;;;;4957380;28;20028;-81
2023/10/21 11:27:18;;;;;;;52.70;5.07;;;16.10;89.90;;;;;;4974721;28;20035;-80
2023/10/21 11:29:45;;;;;;;47.85;4.47;;;16.10;89.80;;;;;;4958056;28;20097;-83
2023/10/21 11:32:14;;;;;;;44.72;4.07;;;16.10;89.70;;;;;;4957525;28;20493;-85
2023/10/21 11:34:44;;;;;;;36.88;3.63;;;16.10;89.80;;;;;;4957473;28;20424;-84
2023/10/21 11:37:11;;;;;;;34.33;4.32;;;16.10;89.80;;;;;;4965797;28;20472;-79
2023/10/21 11:39:39;;;;;;;32.72;3.72;;;16.20;89.70;;;;;;4976382;28;20038;-80
2023/10/21 11:42:17;;;;;;;31.05;3.60;;;16.20;89.70;;;;;;4993466;28;20019;-78
2023/10/21 11:44:53;;;;;;;33.83;4.35;;;16.20;89.70;;;;;;4976285;28;20026;-80
2023/10/21 11:47:21;;;;;;;26.73;3.85;;;16.20;89.60;;;;;;4976937;28;20034;-81
2023/10/21 11:49:48;;;;;;;31.63;3.42;;;16.20;89.70;;;;;;4993581;28;20700;-79
2023/10/21 11:52:13;;;;;;;21.70;2.88;;;16.10;89.60;;;;;;4976004;28;20231;-78
2023/10/21 11:54:59;;;;;;;32.53;3.70;;;16.10;89.60;;;;;;4975956;28;20117;-80
2023/10/21 12:03:52;;;;;;;20.23;2.67;;;16.10;89.20;;;;;;4993694;28;20049;-80
2023/10/21 12:06:17;;;;;;;18.52;2.58;;;16.10;89.30;;;;;;4993383;28;20510;-83
2023/10/21 12:12:55;;;;;;;15.50;2.53;;;16.10;89.60;;;;;;4993846;28;20024;-84
2023/10/21 12:38:41;;;;;;;16.25;1.98;;;16.10;89.70;;;;;;4955162;29;20057;-80
2023/10/21 12:41:20;;;;;;;11.90;1.83;;;16.10;89.60;;;;;;4937314;29;20055;-80
2023/10/21 12:43:48;;;;;;;10.20;1.63;;;16.10;89.50;;;;;;4939097;28;20054;-78
2023/10/21 12:46:17;;;;;;;13.73;1.95;;;16.10;89.40;;;;;;4955820;28;20039;-81
2023/10/21 12:48:45;;;;;;;10.15;1.60;;;16.10;89.40;;;;;;4956838;28;20477;-81
2023/10/21 12:51:14;;;;;;;7.10;1.58;;;16.10;89.40;;;;;;4956420;28;20404;-81
2023/10/21 12:53:40;;;;;;;12.68;1.98;;;16.10;89.50;;;;;;4956741;28;20113;-81
2023/10/21 12:56:06;;;;;;;9.70;1.40;;;16.10;89.60;;;;;;4956481;28;20677;-77
2023/10/21 12:58:32;;;;;;;9.15;1.30;;;16.20;89.70;;;;;;4956197;28;20420;-79
2023/10/21 13:00:58;;;;;;;7.00;1.10;;;16.10;89.70;;;;;;4954218;28;20033;-80
2023/10/21 13:03:24;;;;;;;13.90;1.85;;;16.00;89.70;;;;;;4955699;28;20109;-80
2023/10/21 13:05:52;;;;;;;9.25;1.85;;;16.10;89.80;;;;;;4973284;28;20031;-80
2023/10/21 13:08:17;;;;;;;10.30;1.48;;;16.00;89.80;;;;;;4973428;28;20031;-81
2023/10/21 13:10:43;;;;;;;7.00;1.40;;;16.00;89.90;;;;;;4973402;28;20458;-80
2023/10/21 13:13:11;;;;;;;8.30;1.40;;;16.00;90.00;;;;;;4959532;28;20469;-80
2023/10/21 13:15:36;;;;;;;4.38;1.08;;;16.00;90.00;;;;;;4959798;28;20019;-80
2023/10/21 13:18:03;;;;;;;7.85;1.38;;;16.00;90.00;;;;;;4959875;28;20023;-80
2023/10/21 13:20:29;;;;;;;8.07;1.30;;;16.00;90.00;;;;;;4959806;28;20034;-80